sensor_id;sensor_type;location;lat;lon;timestamp;pressure;altitude;pressure_sealevel;temperature;humidity
2785;BME280;57944;48.722;9.316;2023-11-21T00:02:27;97501.84;;;7.44;100.00
2785;BME280;57944;48.722;9.316;2023-11-21T00:05:00;97502.00;;;7.43;100.00
2785;BME280;57944;48.722;9.316;2023-11-21T00:07:31;97503.22;;;7.47;100.00
2785;BME280;57944;48.722;9.316;2023-11-21T00:10:02;97499.31;;;7.44;100.00
2785;BME280;57944;48.722;9.316;2023-11-21T00:12:33;97504.00;;;7.47;100.00
2785;BME280;57944;48.722;9.316;2023-11-21T00:15:04;97496.63;;;7.52;100.00
2785;BME280;57944;48.722;9.316;2023-11-21T00:17:37;97497.19;;;7.48;100.00
2785;BME280;57944;48.722;9.316;2023-11-21T00:20:11;97485.66;;;7.45;100.00
2785;BME280;57944;48.722;9.316;2023-11-21T00:22:43;97487.41;;;7.45;100.00
2785;BME280;57944;48.722;9.316;2023-11-21T00:25:14;97483.28;;;7.44;100.00
2785;BME280;57944;48.722;9.316;2023-11-21T00:27:45;97480.97;;;7.42;100.00
2785;BME280;57944;48.722;9.316;2023-11-21T00:30:16;97483.28;;;7.44;100.00
2785;BME280;57944;48.722;9.316;2023-11-21T00:32:47;97487.41;;;7.45;100.00
2785;BME280;57944;48.722;9.316;2023-11-21T00:35:22;97485.28;;;7.48;100.00
2785;BME280;57944;48.722;9.316;2023-11-21T00:37:54;97485.91;;;7.50;100.00
2785;BME280;57944;48.722;9.316;2023-11-21T00:40:26;97480.63;;;7.52;100.00
2785;BME280;57944;48.722;9.316;2023-11-21T00:42:57;97484.97;;;7.58;100.00
2785;BME280;57944;48.722;9.316;2023-11-21T00:45:29;97476.38;;;7.59;100.00
2785;BME280;57944;48.722;9.316;2023-11-21T00:47:59;97481.22;;;7.54;100.00
2785;BME280;57944;48.722;9.316;2023-11-21T00:50:35;97478.16;;;7.58;100.00
2785;BME280;57944;48.722;9.316;2023-11-21T00:53:06;97480.69;;;7.58;100.00
2785;BME280;57944;48.722;9.316;2023-11-21T00:55:37;97475.91;;;7.49;100.00
2785;BME280;57944;48.722;9.316;2023-11-21T00:58:08;97475.19;;;7.55;100.00
2785;BME280;57944;48.722;9.316;2023-11-21T01:00:39;97477.91;;;7.53;100.00
2785;BME280;57944;48.722;9.316;2023-11-21T01:03:09;97473.38;;;7.49;100.00
2785;BME280;57944;48.722;9.316;2023-11-21T01:05:43;97474.38;;;7.48;100.00
2785;BME280;57944;48.722;9.316;2023-11-21T01:08:14;97476.78;;;7.34;100.00
2785;BME280;57944;48.722;9.316;2023-11-21T01:10:44;97481.47;;;7.31;100.00
2785;BME280;57944;48.722;9.316;2023-11-21T01:13:15;97478.59;;;7.41;100.00
2785;BME280;57944;48.722;9.316;2023-11-21T01:15:46;97484.50;;;7.48;100.00
2785;BME280;57944;48.722;9.316;2023-11-21T01:18:16;97478.09;;;7.52;100.00
2785;BME280;57944;48.722;9.316;2023-11-21T01:20:50;97482.00;;;7.54;100.00
2785;BME280;57944;48.722;9.316;2023-11-21T01:23:20;97479.91;;;7.58;100.00
2785;BME280;57944;48.722;9.316;2023-11-21T01:25:51;97477.72;;;7.55;100.00
2785;BME280;57944;48.722;9.316;2023-11-21T01:28:22;97475.91;;;7.49;100.00
2785;BME280;57944;48.722;9.316;2023-11-21T01:30:52;97478.91;;;7.52;100.00
2785;BME280;57944;48.722;9.316;2023-11-21T01:33:24;97478.91;;;7.52;100.00
2785;BME280;57944;48.722;9.316;2023-11-21T01:35:58;97472.81;;;7.47;100.00
2785;BME280;57944;48.722;9.316;2023-11-21T01:38:28;97468.06;;;7.44;100.00
2785;BME280;57944;48.722;9.316;2023-11-21T01:41:00;97470.81;;;7.42;100.00
2785;BME280;57944;48.722;9.316;2023-11-21T01:43:32;97470.81;;;7.42;100.00
2785;BME280;57944;48.722;9.316;2023-11-21T01:46:02;97454.22;;;7.39;100.00
2785;BME280;57944;48.722;9.316;2023-11-21T01:48:34;97466.34;;;7.44;100.00
2785;BME280;57944;48.722;9.316;2023-11-21T01:51:09;97466.13;;;7.39;100.00
2785;BME280;57944;48.722;9.316;2023-11-21T01:53:40;97459.94;;;7.48;100.00
2785;BME280;57944;48.722;9.316;2023-11-21T01:56:13;97471.69;;;7.56;100.00
2785;BME280;57944;48.722;9.316;2023-11-21T01:58:44;97474.09;;;7.64;100.00
2785;BME280;57944;48.722;9.316;2023-11-21T02:01:16;97470.97;;;7.69;100.00
2785;BME280;57944;48.722;9.316;2023-11-21T02:03:47;97479.53;;;7.61;100.00
2785;BME280;57944;48.722;9.316;2023-11-21T02:06:20;97475.03;;;7.63;100.00
2785;BME280;57944;48.722;9.316;2023-11-21T02:08:53;97468.66;;;7.67;100.00
2785;BME280;57944;48.722;9.316;2023-11-21T02:11:23;97480.34;;;7.68;100.00
2785;BME280;57944;48.722;9.316;2023-11-21T02:13:54;97473.16;;;7.72;100.00
2785;BME280;57944;48.722;9.316;2023-11-21T02:16:26;97474.19;;;7.77;100.00
2785;BME280;57944;48.722;9.316;2023-11-21T02:18:59;97474.19;;;7.77;100.00
2785;BME280;57944;48.722;9.316;2023-11-21T02:21:34;97477.16;;;7.88;100.00
2785;BME280;57944;48.722;9.316;2023-11-21T02:24:11;97474.59;;;7.88;100.00
2785;BME280;57944;48.722;9.316;2023-11-21T02:26:41;97465.44;;;7.87;100.00
2785;BME280;57944;48.722;9.316;2023-11-21T02:29:13;97467.38;;;7.84;100.00
2785;BME280;57944;48.722;9.316;2023-11-21T02:31:46;97469.44;;;7.74;100.00
2785;BME280;57944;48.722;9.316;2023-11-21T02:34:19;97464.03;;;7.77;100.00
2785;BME280;57944;48.722;9.316;2023-11-21T02:36:49;97458.34;;;7.75;100.00
2785;BME280;57944;48.722;9.316;2023-11-21T02:39:22;97457.97;;;7.78;100.00
2785;BME280;57944;48.722;9.316;2023-11-21T02:41:53;97458.75;;;7.79;100.00
2785;BME280;57944;48.722;9.316;2023-11-21T02:44:24;97452.91;;;7.78;100.00
2785;BME280;57944;48.722;9.316;2023-11-21T02:46:54;97455.63;;;7.77;100.00
2785;BME280;57944;48.722;9.316;2023-11-21T02:49:25;97454.22;;;7.74;100.00
2785;BME280;57944;48.722;9.316;2023-11-21T02:51:56;97455.41;;;7.72;100.00
2785;BME280;57944;48.722;9.316;2023-11-21T02:54:29;97448.16;;;7.69;100.00
2785;BME280;57944;48.722;9.316;2023-11-21T02:57:01;97447.94;;;7.64;100.00
2785;BME280;57944;48.722;9.316;2023-11-21T02:59:32;97442.44;;;7.60;100.00
2785;BME280;57944;48.722;9.316;2023-11-21T03:02:02;97444.03;;;7.61;100.00
2785;BME280;57944;48.722;9.316;2023-11-21T03:04:36;97447.13;;;7.56;100.00
2785;BME280;57944;48.722;9.316;2023-11-21T03:07:06;97449.47;;;7.58;100.00
2785;BME280;57944;48.722;9.316;2023-11-21T03:09:39;97451.78;;;7.53;100.00
2785;BME280;57944;48.722;9.316;2023-11-21T03:12:11;97452.28;;;7.42;100.00
2785;BME280;57944;48.722;9.316;2023-11-21T03:14:43;97449.56;;;7.43;100.00
2785;BME280;57944;48.722;9.316;2023-11-21T03:17:15;97450.56;;;7.49;100.00
2785;BME280;57944;48.722;9.316;2023-11-21T03:19:46;97445.50;;;7.49;100.00
2785;BME280;57944;48.722;9.316;2023-11-21T03:22:16;97455.56;;;7.35;100.00
2785;BME280;57944;48.722;9.316;2023-11-21T03:24:50;97457.94;;;7.44;100.00
2785;BME280;57944;48.722;9.316;2023-11-21T03:27:21;97458.94;;;7.49;100.00
2785;BME280;57944;48.722;9.316;2023-11-21T03:29:52;97460.41;;;7.58;100.00
2785;BME280;57944;48.722;9.316;2023-11-21T03:32:23;97465.88;;;7.62;100.00
2785;BME280;57944;48.722;9.316;2023-11-21T03:34:55;97462.97;;;7.65;100.00
2785;BME280;57944;48.722;9.316;2023-11-21T03:37:27;97461.19;;;7.59;100.00
2785;BME280;57944;48.722;9.316;2023-11-21T03:40:00;97465.88;;;7.62;100.00
2785;BME280;57944;48.722;9.316;2023-11-21T03:42:32;97460.06;;;7.68;100.00
2785;BME280;57944;48.722;9.316;2023-11-21T03:45:03;97467.28;;;7.71;100.00
2785;BME280;57944;48.722;9.316;2023-11-21T03:47:33;97469.09;;;7.77;100.00
2785;BME280;57944;48.722;9.316;2023-11-21T03:50:05;97468.34;;;7.83;100.00
2785;BME280;57944;48.722;9.316;2023-11-21T03:52:36;97468.53;;;7.82;100.00
2785;BME280;57944;48.722;9.316;2023-11-21T03:55:10;97469.91;;;7.84;100.00
2785;BME280;57944;48.722;9.316;2023-11-21T03:57:43;97468.34;;;7.83;100.00
2785;BME280;57944;48.722;9.316;2023-11-21T04:00:14;97468.59;;;7.89;100.00
2785;BME280;57944;48.722;9.316;2023-11-21T04:02:46;97464.09;;;7.91;100.00
2785;BME280;57944;48.722;9.316;2023-11-21T04:05:19;97459.53;;;7.79;100.00
2785;BME280;57944;48.722;9.316;2023-11-21T04:07:51;97459.00;;;7.84;100.00
2785;BME280;57944;48.722;9.316;2023-11-21T04:10:24;97466.78;;;7.82;100.00
2785;BME280;57944;48.722;9.316;2023-11-21T04:12:54;97467.13;;;7.73;100.00
2785;BME280;57944;48.722;9.316;2023-11-21T04:15:25;97466.25;;;7.59;100.00
2785;BME280;57944;48.722;9.316;2023-11-21T04:17:56;97468.19;;;7.57;100.00
2785;BME280;57944;48.722;9.316;2023-11-21T04:20:27;97470.94;;;7.62;100.00
2785;BME280;57944;48.722;9.316;2023-11-21T04:22:57;97465.88;;;7.62;100.00
2785;BME280;57944;48.722;9.316;2023-11-21T04:25:30;97470.63;;;7.72;100.00
2785;BME280;57944;48.722;9.316;2023-11-21T04:28:01;97484.09;;;7.72;100.00
2785;BME280;57944;48.722;9.316;2023-11-21T04:30:32;97480.94;;;7.70;100.00
2785;BME280;57944;48.722;9.316;2023-11-21T04:33:03;97480.47;;;7.60;100.00
2785;BME280;57944;48.722;9.316;2023-11-21T04:35:34;97479.91;;;7.58;100.00
2785;BME280;57944;48.722;9.316;2023-11-21T04:38:04;97480.03;;;7.50;100.00
2785;BME280;57944;48.722;9.316;2023-11-21T04:40:37;97483.59;;;7.55;100.00
2785;BME280;57944;48.722;9.316;2023-11-21T04:43:08;97483.09;;;7.67;100.00
2785;BME280;57944;48.722;9.316;2023-11-21T04:45:39;97487.56;;;7.71;100.00
2785;BME280;57944;48.722;9.316;2023-11-21T04:48:09;97477.66;;;7.76;100.00
2785;BME280;57944;48.722;9.316;2023-11-21T04:50:40;97483.31;;;7.72;100.00
2785;BME280;57944;48.722;9.316;2023-11-21T04:53:10;97480.94;;;7.70;100.00
2785;BME280;57944;48.722;9.316;2023-11-21T04:55:44;97491.28;;;7.69;100.00
2785;BME280;57944;48.722;9.316;2023-11-21T04:58:17;97489.47;;;7.63;100.00
2785;BME280;57944;48.722;9.316;2023-11-21T05:00:48;97486.94;;;7.63;100.00
2785;BME280;57944;48.722;9.316;2023-11-21T05:03:19;97487.69;;;7.56;100.00
2785;BME280;57944;48.722;9.316;2023-11-21T05:05:51;97492.59;;;7.58;100.00
2785;BME280;57944;48.722;9.316;2023-11-21T05:08:23;97503.31;;;7.60;100.00
2785;BME280;57944;48.722;9.316;2023-11-21T05:10:57;97499.81;;;7.61;100.00
2785;BME280;57944;48.722;9.316;2023-11-21T05:13:28;97490.41;;;7.55;100.00
2785;BME280;57944;48.722;9.316;2023-11-21T05:15:58;97498.47;;;7.37;100.00
2785;BME280;57944;48.722;9.316;2023-11-21T05:18:31;97498.50;;;7.44;100.00
2785;BME280;57944;48.722;9.316;2023-11-21T05:21:03;97498.16;;;7.47;100.00
2785;BME280;57944;48.722;9.316;2023-11-21T05:23:34;97497.97;;;7.48;100.00
2785;BME280;57944;48.722;9.316;2023-11-21T05:26:07;97502.22;;;7.41;100.00
2785;BME280;57944;48.722;9.316;2023-11-21T05:28:38;97502.75;;;7.36;100.00
2785;BME280;57944;48.722;9.316;2023-11-21T05:31:09;97516.03;;;7.38;100.00
2785;BME280;57944;48.722;9.316;2023-11-21T05:33:44;97519.16;;;7.41;100.00
2785;BME280;57944;48.722;9.316;2023-11-21T05:36:14;97520.50;;;7.36;100.00
2785;BME280;57944;48.722;9.316;2023-11-21T05:38:45;97518.31;;;7.33;100.00
2785;BME280;57944;48.722;9.316;2023-11-21T05:41:18;97520.75;;;7.42;100.00
2785;BME280;57944;48.722;9.316;2023-11-21T05:43:49;97523.84;;;7.44;100.00
2785;BME280;57944;48.722;9.316;2023-11-21T05:46:21;97525.06;;;7.48;100.00
2785;BME280;57944;48.722;9.316;2023-11-21T05:48:52;97530.75;;;7.50;100.00
2785;BME280;57944;48.722;9.316;2023-11-21T05:51:23;97528.78;;;7.52;100.00
2785;BME280;57944;48.722;9.316;2023-11-21T05:53:53;97526.88;;;7.54;100.00
2785;BME280;57944;48.722;9.316;2023-11-21T05:56:27;97529.03;;;7.57;100.00
2785;BME280;57944;48.722;9.316;2023-11-21T05:58:57;97534.84;;;7.51;100.00
2785;BME280;57944;48.722;9.316;2023-11-21T06:01:28;97537.50;;;7.43;100.00
2785;BME280;57944;48.722;9.316;2023-11-21T06:03:58;97536.25;;;7.32;100.00
2785;BME280;57944;48.722;9.316;2023-11-21T06:06:29;97539.78;;;7.37;100.00
2785;BME280;57944;48.722;9.316;2023-11-21T06:09:00;97540.16;;;7.34;100.00
2785;BME280;57944;48.722;9.316;2023-11-21T06:11:33;97534.84;;;7.29;100.00
2785;BME280;57944;48.722;9.316;2023-11-21T06:14:04;97544.03;;;7.30;100.00
2785;BME280;57944;48.722;9.316;2023-11-21T06:16:35;97547.88;;;7.26;100.00
2785;BME280;57944;48.722;9.316;2023-11-21T06:19:08;97551.41;;;7.25;100.00
2785;BME280;57944;48.722;9.316;2023-11-21T06:21:38;97552.13;;;7.19;100.00
2785;BME280;57944;48.722;9.316;2023-11-21T06:24:09;97558.13;;;7.18;100.00
2785;BME280;57944;48.722;9.316;2023-11-21T06:26:42;97561.03;;;7.15;100.00
2785;BME280;57944;48.722;9.316;2023-11-21T06:29:16;97559.47;;;7.14;100.00
2785;BME280;57944;48.722;9.316;2023-11-21T06:31:46;97562.47;;;7.24;100.00
2785;BME280;57944;48.722;9.316;2023-11-21T06:34:17;97561.53;;;7.25;100.00
2785;BME280;57944;48.722;9.316;2023-11-21T06:36:49;97566.59;;;7.25;100.00
2785;BME280;57944;48.722;9.316;2023-11-21T06:39:20;97568.66;;;7.36;100.00
2785;BME280;57944;48.722;9.316;2023-11-21T06:41:53;97577.34;;;7.27;100.00
2785;BME280;57944;48.722;9.316;2023-11-21T06:44:24;97574.47;;;7.30;100.00
2785;BME280;57944;48.722;9.316;2023-11-21T06:46:54;97578.03;;;7.36;100.00
2785;BME280;57944;48.722;9.316;2023-11-21T06:49:25;97578.78;;;7.36;100.00
2785;BME280;57944;48.722;9.316;2023-11-21T06:51:56;97578.06;;;7.43;100.00
2785;BME280;57944;48.722;9.316;2023-11-21T06:54:27;97586.34;;;7.51;100.00
2785;BME280;57944;48.722;9.316;2023-11-21T06:57:00;97585.81;;;7.56;100.00
2785;BME280;57944;48.722;9.316;2023-11-21T06:59:31;97588.00;;;7.66;100.00
2785;BME280;57944;48.722;9.316;2023-11-21T07:02:01;97585.97;;;7.76;100.00
2785;BME280;57944;48.722;9.316;2023-11-21T07:04:34;97590.66;;;7.79;100.00
2785;BME280;57944;48.722;9.316;2023-11-21T07:07:05;97603.31;;;7.72;100.00
2785;BME280;57944;48.722;9.316;2023-11-21T07:09:37;97597.88;;;7.75;100.00
2785;BME280;57944;48.722;9.316;2023-11-21T07:12:10;97610.78;;;7.80;100.00
2785;BME280;57944;48.722;9.316;2023-11-21T07:14:41;97608.50;;;7.86;100.00
2785;BME280;57944;48.722;9.316;2023-11-21T07:17:12;97613.78;;;7.91;100.00
2785;BME280;57944;48.722;9.316;2023-11-21T07:19:45;97605.66;;;8.02;100.00
2785;BME280;57944;48.722;9.316;2023-11-21T07:22:16;97606.31;;;8.11;100.00
2785;BME280;57944;48.722;9.316;2023-11-21T07:24:49;97611.06;;;8.20;100.00
2785;BME280;57944;48.722;9.316;2023-11-21T07:27:23;97616.97;;;8.27;100.00
2785;BME280;57944;48.722;9.316;2023-11-21T07:29:54;97621.31;;;8.34;100.00
2785;BME280;57944;48.722;9.316;2023-11-21T07:32:25;97610.44;;;8.40;100.00
2785;BME280;57944;48.722;9.316;2023-11-21T07:34:55;97622.22;;;8.47;100.00
2785;BME280;57944;48.722;9.316;2023-11-21T07:37:27;97621.44;;;8.54;100.00
2785;BME280;57944;48.722;9.316;2023-11-21T07:39:58;97622.22;;;8.54;100.00
2785;BME280;57944;48.722;9.316;2023-11-21T07:42:31;97632.41;;;8.54;100.00
2785;BME280;57944;48.722;9.316;2023-11-21T07:45:02;97636.78;;;8.67;100.00
2785;BME280;57944;48.722;9.316;2023-11-21T07:47:33;97633.50;;;8.80;100.00
2785;BME280;57944;48.722;9.316;2023-11-21T07:50:04;97637.66;;;8.94;100.00
2785;BME280;57944;48.722;9.316;2023-11-21T07:52:36;97640.63;;;9.04;100.00
2785;BME280;57944;48.722;9.316;2023-11-21T07:55:07;97639.66;;;9.05;100.00
2785;BME280;57944;48.722;9.316;2023-11-21T07:57:41;97645.50;;;8.99;100.00
2785;BME280;57944;48.722;9.316;2023-11-21T08:00:13;97648.75;;;8.80;100.00
2785;BME280;57944;48.722;9.316;2023-11-21T08:02:44;97648.16;;;8.78;100.00
2785;BME280;57944;48.722;9.316;2023-11-21T08:05:14;97639.56;;;8.79;100.00
2785;BME280;57944;48.722;9.316;2023-11-21T08:07:58;97650.75;;;8.91;100.00
2785;BME280;57944;48.722;9.316;2023-11-21T08:10:29;97654.13;;;9.05;100.00
2785;BME280;57944;48.722;9.316;2023-11-21T08:13:02;97653.34;;;9.04;100.00
2785;BME280;57944;48.722;9.316;2023-11-21T08:15:34;97661.81;;;8.77;100.00
2785;BME280;57944;48.722;9.316;2023-11-21T08:18:04;97663.03;;;8.81;100.00
2785;BME280;57944;48.722;9.316;2023-11-21T08:20:35;97662.19;;;8.73;100.00
2785;BME280;57944;48.722;9.316;2023-11-21T08:23:07;97659.94;;;8.57;100.00
2785;BME280;57944;48.722;9.316;2023-11-21T08:25:38;97660.94;;;8.56;100.00
2785;BME280;57944;48.722;9.316;2023-11-21T08:28:13;97657.81;;;8.61;100.00
2785;BME280;57944;48.722;9.316;2023-11-21T08:30:44;97663.44;;;8.84;100.00
2785;BME280;57944;48.722;9.316;2023-11-21T08:33:15;97668.53;;;8.91;100.00
2785;BME280;57944;48.722;9.316;2023-11-21T08:35:45;97668.53;;;8.91;100.00
2785;BME280;57944;48.722;9.316;2023-11-21T08:38:16;97670.41;;;8.76;100.00
2785;BME280;57944;48.722;9.316;2023-11-21T08:40:47;97667.53;;;8.85;100.00
2785;BME280;57944;48.722;9.316;2023-11-21T08:43:20;97675.56;;;8.89;100.00
2785;BME280;57944;48.722;9.316;2023-11-21T08:45:52;97671.28;;;8.96;100.00
2785;BME280;57944;48.722;9.316;2023-11-21T08:48:22;97671.53;;;9.01;100.00
2785;BME280;57944;48.722;9.316;2023-11-21T08:50:53;97678.53;;;8.99;100.00
2785;BME280;57944;48.722;9.316;2023-11-21T08:53:24;97675.44;;;8.97;100.00
2785;BME280;57944;48.722;9.316;2023-11-21T08:55:54;97675.00;;;8.93;100.00
2785;BME280;57944;48.722;9.316;2023-11-21T08:58:27;97676.81;;;9.06;100.00
2785;BME280;57944;48.722;9.316;2023-11-21T09:00:58;97677.22;;;9.10;100.00
2785;BME280;57944;48.722;9.316;2023-11-21T09:03:29;97685.06;;;9.15;100.00
2785;BME280;57944;48.722;9.316;2023-11-21T09:06:01;97693.25;;;9.04;100.00
2785;BME280;57944;48.722;9.316;2023-11-21T09:08:32;97697.84;;;8.87;100.00
2785;BME280;57944;48.722;9.316;2023-11-21T09:11:03;97689.72;;;9.05;100.00
2785;BME280;57944;48.722;9.316;2023-11-21T09:13:38;97690.81;;;9.37;100.00
2785;BME280;57944;48.722;9.316;2023-11-21T09:16:09;97693.38;;;9.44;100.00
2785;BME280;57944;48.722;9.316;2023-11-21T09:18:39;97696.38;;;9.67;100.00
2785;BME280;57944;48.722;9.316;2023-11-21T09:21:10;97704.22;;;9.85;100.00
2785;BME280;57944;48.722;9.316;2023-11-21T09:23:42;97698.97;;;10.00;100.00
2785;BME280;57944;48.722;9.316;2023-11-21T09:26:13;97702.31;;;10.07;100.00
2785;BME280;57944;48.722;9.316;2023-11-21T09:28:47;97701.31;;;10.22;100.00
2785;BME280;57944;48.722;9.316;2023-11-21T09:31:18;97707.25;;;10.42;100.00
2785;BME280;57944;48.722;9.316;2023-11-21T09:33:50;97709.16;;;10.60;100.00
2785;BME280;57944;48.722;9.316;2023-11-21T09:36:21;97705.94;;;11.05;100.00
2785;BME280;57944;48.722;9.316;2023-11-21T09:38:54;97706.47;;;11.58;100.00
2785;BME280;57944;48.722;9.316;2023-11-21T09:41:31;97716.78;;;11.38;100.00
2785;BME280;57944;48.722;9.316;2023-11-21T09:44:10;97712.34;;;11.66;100.00
2785;BME280;57944;48.722;9.316;2023-11-21T09:46:44;97717.72;;;11.51;100.00
2785;BME280;57944;48.722;9.316;2023-11-21T09:49:20;97707.91;;;11.93;100.00
2785;BME280;57944;48.722;9.316;2023-11-21T09:51:55;97713.28;;;12.10;100.00
2785;BME280;57944;48.722;9.316;2023-11-21T09:54:26;97719.88;;;11.54;100.00
2785;BME280;57944;48.722;9.316;2023-11-21T09:57:00;97717.34;;;11.85;100.00
2785;BME280;57944;48.722;9.316;2023-11-21T09:59:33;97725.09;;;12.54;100.00
2785;BME280;57944;48.722;9.316;2023-11-21T10:02:05;97723.84;;;12.13;100.00
2785;BME280;57944;48.722;9.316;2023-11-21T10:04:40;97729.31;;;11.85;100.00
2785;BME280;57944;48.722;9.316;2023-11-21T10:07:12;97731.94;;;11.72;100.00
2785;BME280;57944;48.722;9.316;2023-11-21T10:09:43;97730.72;;;11.88;100.00
2785;BME280;57944;48.722;9.316;2023-11-21T10:12:16;97735.91;;;11.16;100.00
2785;BME280;57944;48.722;9.316;2023-11-21T10:14:51;97738.75;;;10.74;100.00
2785;BME280;57944;48.722;9.316;2023-11-21T10:17:24;97728.00;;;10.52;100.00
2785;BME280;57944;48.722;9.316;2023-11-21T10:19:58;97726.81;;;10.62;100.00
2785;BME280;57944;48.722;9.316;2023-11-21T10:22:30;97727.19;;;10.72;100.00
2785;BME280;57944;48.722;9.316;2023-11-21T10:25:01;97729.91;;;10.77;100.00
2785;BME280;57944;48.722;9.316;2023-11-21T10:27:35;97729.72;;;10.85;100.00
2785;BME280;57944;48.722;9.316;2023-11-21T10:30:10;97727.88;;;11.06;100.00
2785;BME280;57944;48.722;9.316;2023-11-21T10:32:43;97732.38;;;11.17;100.00
2785;BME280;57944;48.722;9.316;2023-11-21T10:35:14;97734.91;;;11.24;100.00
2785;BME280;57944;48.722;9.316;2023-11-21T10:37:45;97738.47;;;11.16;100.00
2785;BME280;57944;48.722;9.316;2023-11-21T10:40:30;97733.78;;;11.58;100.00
2785;BME280;57944;48.722;9.316;2023-11-21T10:43:06;97733.03;;;11.96;100.00
2785;BME280;57944;48.722;9.316;2023-11-21T10:45:41;97731.63;;;12.25;100.00
2785;BME280;57944;48.722;9.316;2023-11-21T10:48:14;97734.75;;;12.02;100.00
2785;BME280;57944;48.722;9.316;2023-11-21T10:50:46;97735.00;;;11.49;100.00
2785;BME280;57944;48.722;9.316;2023-11-21T10:53:17;97740.78;;;11.24;100.00
2785;BME280;57944;48.722;9.316;2023-11-21T10:56:02;97738.28;;;11.56;100.00
2785;BME280;57944;48.722;9.316;2023-11-21T10:58:36;97736.75;;;11.55;100.00
2785;BME280;57944;48.722;9.316;2023-11-21T11:01:10;97743.03;;;11.59;100.00
2785;BME280;57944;48.722;9.316;2023-11-21T11:03:45;97732.91;;;11.32;100.00
2785;BME280;57944;48.722;9.316;2023-11-21T11:06:17;97733.69;;;11.39;100.00
2785;BME280;57944;48.722;9.316;2023-11-21T11:08:48;97735.41;;;10.87;100.00
2785;BME280;57944;48.722;9.316;2023-11-21T11:11:19;97742.31;;;10.40;100.00
2785;BME280;57944;48.722;9.316;2023-11-21T11:13:50;97735.03;;;10.31;100.00
2785;BME280;57944;48.722;9.316;2023-11-21T11:16:24;97733.06;;;10.13;100.00
2785;BME280;57944;48.722;9.316;2023-11-21T11:18:56;97735.41;;;10.07;100.00
2785;BME280;57944;48.722;9.316;2023-11-21T11:21:36;97733.59;;;9.81;100.00
2785;BME280;57944;48.722;9.316;2023-11-21T11:27:15;97733.34;;;9.56;100.00
2785;BME280;57944;48.722;9.316;2023-11-21T11:29:56;97733.13;;;9.45;100.00
2785;BME280;57944;48.722;9.316;2023-11-21T11:32:41;97729.75;;;9.31;100.00
2785;BME280;57944;48.722;9.316;2023-11-21T11:35:19;97726.31;;;9.10;100.00
2785;BME280;57944;48.722;9.316;2023-11-21T11:37:53;97729.38;;;8.99;100.00
2785;BME280;57944;48.722;9.316;2023-11-21T11:40:38;97734.59;;;8.91;100.00
2785;BME280;57944;48.722;9.316;2023-11-21T11:43:09;97740.06;;;8.88;100.00
2785;BME280;57944;48.722;9.316;2023-11-21T11:45:41;97734.72;;;8.76;100.00
2785;BME280;57944;48.722;9.316;2023-11-21T11:48:17;97741.84;;;8.59;100.00
2785;BME280;57944;48.722;9.316;2023-11-21T11:51:02;97740.41;;;8.50;100.00
2785;BME280;57944;48.722;9.316;2023-11-21T11:53:37;97737.16;;;8.63;100.00
2785;BME280;57944;48.722;9.316;2023-11-21T11:56:31;97743.09;;;8.70;100.00
2785;BME280;57944;48.722;9.316;2023-11-21T11:59:03;97738.78;;;9.05;100.00
2785;BME280;57944;48.722;9.316;2023-11-21T12:01:37;97737.94;;;9.33;100.00
2785;BME280;57944;48.722;9.316;2023-11-21T12:04:34;97737.50;;;9.71;100.00
2785;BME280;57944;48.722;9.316;2023-11-21T12:07:14;97748.09;;;9.88;100.00
2785;BME280;57944;48.722;9.316;2023-11-21T12:09:45;97745.78;;;10.13;100.00
2785;BME280;57944;48.722;9.316;2023-11-21T12:12:16;97748.19;;;10.34;100.00
2785;BME280;57944;48.722;9.316;2023-11-21T12:14:47;97757.59;;;10.54;100.00
2785;BME280;57944;48.722;9.316;2023-11-21T12:17:18;97764.44;;;10.73;100.00
2785;BME280;57944;48.722;9.316;2023-11-21T12:19:51;97762.06;;;10.91;100.00
2785;BME280;57944;48.722;9.316;2023-11-21T12:22:23;97754.22;;;10.86;100.00
2785;BME280;57944;48.722;9.316;2023-11-21T12:24:54;97752.41;;;11.00;100.00
2785;BME280;57944;48.722;9.316;2023-11-21T12:27:26;97755.69;;;11.27;100.00
2785;BME280;57944;48.722;9.316;2023-11-21T12:29:57;97757.66;;;11.32;100.00
2785;BME280;57944;48.722;9.316;2023-11-21T12:32:28;97760.38;;;11.30;100.00
2785;BME280;57944;48.722;9.316;2023-11-21T12:35:01;97768.59;;;11.46;100.00
2785;BME280;57944;48.722;9.316;2023-11-21T12:37:34;97759.47;;;11.63;100.00
2785;BME280;57944;48.722;9.316;2023-11-21T12:40:06;97761.75;;;11.84;100.00
2785;BME280;57944;48.722;9.316;2023-11-21T12:42:40;97765.50;;;11.75;100.00
2785;BME280;57944;48.722;9.316;2023-11-21T12:45:20;97768.91;;;11.62;100.00
2785;BME280;57944;48.722;9.316;2023-11-21T12:47:56;97779.44;;;11.73;100.00
2785;BME280;57944;48.722;9.316;2023-11-21T12:50:31;97770.97;;;11.85;100.00
2785;BME280;57944;48.722;9.316;2023-11-21T12:53:03;97766.47;;;11.88;100.00
2785;BME280;57944;48.722;9.316;2023-11-21T12:55:37;97774.13;;;11.88;100.00
2785;BME280;57944;48.722;9.316;2023-11-21T12:58:11;97769.59;;;11.90;100.00
2785;BME280;57944;48.722;9.316;2023-11-21T13:00:44;97775.81;;;11.55;100.00
2785;BME280;57944;48.722;9.316;2023-11-21T13:03:16;97766.78;;;10.81;100.00
2785;BME280;57944;48.722;9.316;2023-11-21T13:05:56;97766.78;;;10.41;100.00
2785;BME280;57944;48.722;9.316;2023-11-21T13:08:28;97760.72;;;10.36;100.00
2785;BME280;57944;48.722;9.316;2023-11-21T13:11:00;97765.25;;;10.54;100.00
2785;BME280;57944;48.722;9.316;2023-11-21T13:13:33;97760.94;;;10.47;100.00
2785;BME280;57944;48.722;9.316;2023-11-21T13:16:07;97766.81;;;10.55;100.00
2785;BME280;57944;48.722;9.316;2023-11-21T13:18:38;97764.84;;;10.50;100.00
2785;BME280;57944;48.722;9.316;2023-11-21T13:21:12;97768.78;;;10.39;100.00
2785;BME280;57944;48.722;9.316;2023-11-21T13:23:45;97773.06;;;10.52;100.00
2785;BME280;57944;48.722;9.316;2023-11-21T13:26:18;97787.59;;;10.51;100.00
2785;BME280;57944;48.722;9.316;2023-11-21T13:28:51;97790.34;;;10.57;100.00
2785;BME280;57944;48.722;9.316;2023-11-21T13:31:22;97790.72;;;10.47;100.00
2785;BME280;57944;48.722;9.316;2023-11-21T13:33:54;97783.66;;;10.36;100.00
2785;BME280;57944;48.722;9.316;2023-11-21T13:36:35;97786.53;;;10.19;100.00
2785;BME280;57944;48.722;9.316;2023-11-21T13:39:06;97786.22;;;10.42;100.00